Terminal Aerodrome Forecast
Issued by NWS

Home | Current Version | Previous Version | Graphics & Text | Print | Product List | Glossary On
Versions: 1 2 3 4 5 6 7 8 9 10 11 12 13 14 15 16
000
FTUS43 KICT 100300 AAA
TAFRSL
TAF AMD
KRSL 100303Z 1003/1024 15011KT P6SM VCTS SCT080CB BKN250
     FM100900 16015G22KT P6SM SCT100 BKN150
     FM101600 17019G28KT P6SM SCT200=

USA.gov is the U.S. government's official web portal to all federal, state and local government web resources and services.